createdAt,value
2018-06-20T00:02:25.154Z,18.90
2018-06-20T00:04:53.470Z,19.00
2018-06-20T00:07:21.814Z,19.00
2018-06-20T00:09:50.196Z,19.00
2018-06-20T00:12:18.504Z,18.90
2018-06-20T00:14:46.838Z,19.00
2018-06-20T00:17:15.147Z,19.00
2018-06-20T00:19:43.466Z,19.10
2018-06-20T00:22:11.765Z,19.10
2018-06-20T00:24:40.111Z,19.10
2018-06-20T00:27:08.415Z,19.10
2018-06-20T00:29:36.738Z,19.00
2018-06-20T00:32:05.042Z,18.90
2018-06-20T00:34:33.359Z,18.80
2018-06-20T00:37:01.664Z,18.70
2018-06-20T00:39:29.983Z,18.70
2018-06-20T00:41:58.290Z,18.80
2018-06-20T00:44:26.614Z,18.80
2018-06-20T00:46:54.914Z,18.90
2018-06-20T00:49:23.227Z,18.90
2018-06-20T00:51:51.578Z,18.90
2018-06-20T00:54:19.925Z,18.90
2018-06-20T00:56:48.307Z,18.90
2018-06-20T00:59:16.630Z,18.80
2018-06-20T01:01:44.950Z,18.80
2018-06-20T01:04:13.261Z,18.90
2018-06-20T01:09:10.403Z,18.90
2018-06-20T01:11:38.842Z,18.80
2018-06-20T01:14:07.134Z,18.80
2018-06-20T01:16:35.594Z,18.80
2018-06-20T01:19:03.918Z,18.90
2018-06-20T01:21:32.266Z,18.80
2018-06-20T01:24:00.574Z,18.80
2018-06-20T01:26:28.910Z,18.80
2018-06-20T01:28:57.223Z,18.80
2018-06-20T01:31:25.546Z,18.80
2018-06-20T01:33:53.854Z,18.70
2018-06-20T01:36:22.182Z,18.80
2018-06-20T01:38:50.487Z,18.80
2018-06-20T01:41:18.818Z,18.80
2018-06-20T01:43:47.126Z,18.80
2018-06-20T01:46:15.462Z,18.80
2018-06-20T01:48:43.775Z,18.80
2018-06-20T01:51:12.098Z,18.80
2018-06-20T01:53:40.417Z,18.70
2018-06-20T01:56:08.772Z,18.60
2018-06-20T01:58:37.074Z,18.70
2018-06-20T02:01:05.397Z,18.60
2018-06-20T02:03:33.707Z,18.60
2018-06-20T02:06:02.031Z,18.70
2018-06-20T02:08:30.334Z,18.70
2018-06-20T02:10:58.750Z,18.70
2018-06-20T02:13:27.055Z,18.70
2018-06-20T02:15:55.395Z,18.70
2018-06-20T02:20:51.768Z,18.60
2018-06-20T02:23:20.078Z,18.70
2018-06-20T02:25:48.403Z,18.60
2018-06-20T02:28:16.716Z,18.70
2018-06-20T02:30:45.044Z,18.70
2018-06-20T02:33:13.351Z,18.80
2018-06-20T02:35:41.688Z,18.80
2018-06-20T02:38:09.996Z,18.80
2018-06-20T02:40:38.323Z,18.80
2018-06-20T02:43:06.672Z,18.80
2018-06-20T02:45:34.993Z,18.70
2018-06-20T02:48:03.311Z,18.70
2018-06-20T02:50:31.654Z,18.70
2018-06-20T02:52:59.979Z,18.70
2018-06-20T02:55:28.314Z,18.70
2018-06-20T02:57:56.619Z,18.70
2018-06-20T03:00:24.925Z,18.70
2018-06-20T03:02:53.258Z,18.70
2018-06-20T03:05:21.571Z,18.80
2018-06-20T03:07:49.903Z,18.80
2018-06-20T03:10:18.215Z,18.70
2018-06-20T03:12:46.542Z,18.70
2018-06-20T03:15:14.847Z,18.70
2018-06-20T03:17:43.271Z,18.70
2018-06-20T03:20:11.578Z,18.70
2018-06-20T03:22:39.911Z,18.70
2018-06-20T03:25:08.222Z,18.70
2018-06-20T03:27:36.549Z,18.70
2018-06-20T03:30:05.209Z,18.70
2018-06-20T03:32:33.538Z,18.70
2018-06-20T03:35:01.846Z,18.60
2018-06-20T03:37:30.178Z,18.60
2018-06-20T03:39:58.499Z,18.60
2018-06-20T03:42:26.830Z,18.70
2018-06-20T03:44:55.138Z,18.70
2018-06-20T03:47:23.467Z,18.70
2018-06-20T03:49:51.778Z,18.60
2018-06-20T03:52:20.142Z,18.60
2018-06-20T03:54:48.450Z,18.70
2018-06-20T03:57:16.791Z,18.70
2018-06-20T03:59:45.103Z,18.60
2018-06-20T04:02:13.433Z,18.70
2018-06-20T04:04:41.743Z,18.70
2018-06-20T04:07:10.075Z,18.70
2018-06-20T04:09:38.382Z,18.70
2018-06-20T04:12:06.750Z,18.60
2018-06-20T04:14:35.055Z,18.70
2018-06-20T04:17:03.382Z,18.60
2018-06-20T04:19:31.688Z,18.60
2018-06-20T04:22:00.045Z,18.60
2018-06-20T04:24:28.358Z,18.60
2018-06-20T04:26:56.686Z,18.70
2018-06-20T04:29:24.994Z,18.70
2018-06-20T04:31:53.314Z,18.70
2018-06-20T04:34:21.626Z,18.80
2018-06-20T04:36:49.958Z,18.80
2018-06-20T04:41:46.529Z,18.80
2018-06-20T04:44:14.831Z,18.90
2018-06-20T04:46:43.163Z,18.90
2018-06-20T04:49:11.563Z,18.90
2018-06-20T04:51:39.910Z,18.90
2018-06-20T04:54:08.230Z,18.90
2018-06-20T04:56:36.579Z,18.90
2018-06-20T04:59:04.886Z,18.90
2018-06-20T05:01:33.206Z,18.90
2018-06-20T05:04:01.539Z,18.90
2018-06-20T05:06:29.849Z,18.90
2018-06-20T05:08:58.210Z,18.90
2018-06-20T05:11:26.574Z,19.00
2018-06-20T05:13:54.914Z,18.90
2018-06-20T05:16:23.214Z,19.00
2018-06-20T05:18:51.550Z,19.10
2018-06-20T05:21:20.270Z,19.10
2018-06-20T05:23:48.594Z,19.20
2018-06-20T05:26:16.898Z,19.20
2018-06-20T05:28:45.240Z,19.20
2018-06-20T05:31:13.546Z,19.20
2018-06-20T05:33:41.880Z,19.20
2018-06-20T05:36:10.186Z,19.20
2018-06-20T05:38:38.515Z,19.20
2018-06-20T05:43:34.886Z,19.40
2018-06-20T05:46:03.234Z,19.30
2018-06-20T05:48:31.566Z,19.30
2018-06-20T05:50:59.871Z,19.40
2018-06-20T05:53:28.247Z,19.40
2018-06-20T05:55:56.550Z,19.30
2018-06-20T05:58:24.897Z,19.40
2018-06-20T06:00:53.206Z,19.30
2018-06-20T06:03:21.543Z,19.30
2018-06-20T06:06:17.091Z,19.50
2018-06-20T06:08:46.114Z,19.50
2018-06-20T06:11:14.458Z,19.50
2018-06-20T06:13:42.826Z,19.50
2018-06-20T06:16:11.143Z,19.50
2018-06-20T06:18:39.475Z,19.50
2018-06-20T06:21:07.802Z,19.70
2018-06-20T06:23:36.134Z,19.70
2018-06-20T06:26:04.474Z,19.80
2018-06-20T06:28:32.806Z,19.90
2018-06-20T06:31:01.166Z,20.00
2018-06-20T06:33:29.498Z,20.00
2018-06-20T06:35:57.806Z,20.00
2018-06-20T06:38:26.146Z,20.10
2018-06-20T06:40:54.458Z,20.20
2018-06-20T06:43:22.794Z,20.20
2018-06-20T06:45:51.106Z,20.40
2018-06-20T06:48:19.439Z,20.50
2018-06-20T06:50:47.750Z,20.50
2018-06-20T06:53:16.102Z,20.60
2018-06-20T06:55:44.411Z,20.60
2018-06-20T06:58:12.751Z,20.80
2018-06-20T07:00:41.063Z,20.80
2018-06-20T07:03:09.403Z,20.80
2018-06-20T07:05:37.722Z,20.80
2018-06-20T07:08:06.051Z,21.00
2018-06-20T07:10:34.365Z,21.20
2018-06-20T07:13:02.711Z,21.20
2018-06-20T07:15:31.100Z,21.20
2018-06-20T07:17:59.399Z,21.30
2018-06-20T07:20:27.702Z,21.30
2018-06-20T07:22:56.015Z,21.40
2018-06-20T07:25:24.342Z,21.60
2018-06-20T07:27:52.643Z,21.80
2018-06-20T07:30:20.971Z,22.10
2018-06-20T07:32:49.285Z,22.40
2018-06-20T07:35:17.619Z,22.40
2018-06-20T07:37:45.934Z,22.50
2018-06-20T07:40:14.288Z,22.90
2018-06-20T07:42:42.600Z,23.10
2018-06-20T07:45:11.016Z,23.50
2018-06-20T07:47:39.262Z,23.60
2018-06-20T07:50:07.587Z,23.80
2018-06-20T07:52:35.911Z,24.10
2018-06-20T07:55:04.251Z,24.50
2018-06-20T07:57:32.551Z,24.60
2018-06-20T08:00:06.199Z,24.60
2018-06-20T08:02:51.495Z,24.90
2018-06-20T08:05:25.123Z,25.00
2018-06-20T08:07:58.927Z,24.90
2018-06-20T08:10:32.563Z,24.40
2018-06-20T08:13:06.213Z,24.40
2018-06-20T08:15:39.898Z,24.40
2018-06-20T08:18:13.696Z,24.30
2018-06-20T08:20:42.007Z,24.50
2018-06-20T08:25:38.421Z,24.70
2018-06-20T08:28:06.674Z,24.80
2018-06-20T08:30:35.007Z,24.90
2018-06-20T08:33:03.298Z,24.80
2018-06-20T08:35:32.843Z,24.80
2018-06-20T08:38:01.147Z,24.90
2018-06-20T08:40:29.550Z,24.90
2018-06-20T08:42:57.850Z,25.00
2018-06-20T08:45:26.189Z,25.00
2018-06-20T08:47:54.494Z,24.90
2018-06-20T08:50:22.807Z,24.90
2018-06-20T08:52:51.122Z,24.80
2018-06-20T08:55:19.467Z,24.80
2018-06-20T08:57:47.762Z,25.20
2018-06-20T09:00:20.300Z,25.40
2018-06-20T09:02:48.594Z,25.60
2018-06-20T09:05:22.146Z,25.50
2018-06-20T09:07:55.727Z,25.60
2018-06-20T09:10:29.431Z,25.40
2018-06-20T09:13:03.155Z,25.60
2018-06-20T09:15:36.818Z,25.60
2018-06-20T09:18:10.643Z,25.50
2018-06-20T09:20:38.971Z,25.20
2018-06-20T09:23:07.275Z,25.10
2018-06-20T09:25:35.598Z,24.70
2018-06-20T09:28:03.894Z,24.80
2018-06-20T09:30:32.250Z,24.80
2018-06-20T09:33:00.587Z,25.00
2018-06-20T09:35:28.958Z,25.10
2018-06-20T09:37:57.364Z,25.30
2018-06-20T09:40:25.718Z,25.40
2018-06-20T09:42:54.228Z,25.30
2018-06-20T09:45:22.546Z,25.30
2018-06-20T09:47:50.842Z,25.50
2018-06-20T09:50:24.538Z,25.70
2018-06-20T09:52:52.906Z,25.80
2018-06-20T09:55:21.235Z,25.90
2018-06-20T09:57:49.577Z,26.00
2018-06-20T10:00:23.441Z,25.70
2018-06-20T10:02:57.163Z,25.80
2018-06-20T10:05:30.870Z,25.80
2018-06-20T10:08:04.614Z,25.60
2018-06-20T10:10:38.394Z,25.40
2018-06-20T10:13:16.490Z,25.50
2018-06-20T10:15:44.826Z,25.40
2018-06-20T10:18:13.239Z,25.50
2018-06-20T10:20:41.574Z,25.60
2018-06-20T10:23:09.874Z,26.00
2018-06-20T10:25:38.242Z,26.00
2018-06-20T10:28:06.658Z,26.00
2018-06-20T10:30:34.971Z,26.20
2018-06-20T10:33:03.272Z,26.30
2018-06-20T10:35:31.578Z,26.40
2018-06-20T10:37:59.883Z,26.30
2018-06-20T10:40:28.210Z,26.40
2018-06-20T10:42:56.602Z,26.30
2018-06-20T10:45:30.422Z,26.30
2018-06-20T10:47:58.717Z,26.30
2018-06-20T10:50:27.063Z,26.20
2018-06-20T10:52:55.383Z,26.40
2018-06-20T10:55:23.747Z,26.60
2018-06-20T10:57:57.522Z,26.80
2018-06-20T11:00:31.306Z,26.80
2018-06-20T11:03:05.087Z,26.70
2018-06-20T11:06:41.750Z,26.80
2018-06-20T11:09:15.515Z,26.90
2018-06-20T11:14:17.324Z,27.20
2018-06-20T11:19:13.694Z,27.30
2018-06-20T11:21:42.115Z,27.20
2018-06-20T11:24:10.442Z,27.20
2018-06-20T11:26:38.763Z,27.40
2018-06-20T11:29:07.083Z,27.50
2018-06-20T11:31:35.398Z,27.50
2018-06-20T11:34:03.706Z,27.40
2018-06-20T11:36:32.035Z,27.40
2018-06-20T11:39:00.332Z,27.50
2018-06-20T11:41:28.654Z,27.40
2018-06-20T11:43:56.954Z,27.30
2018-06-20T11:46:30.654Z,27.20
2018-06-20T11:48:58.954Z,27.10
2018-06-20T11:51:27.272Z,27.20
2018-06-20T11:53:55.598Z,27.40
2018-06-20T11:56:24.098Z,27.60
2018-06-20T11:58:57.718Z,27.70
2018-06-20T12:01:31.255Z,27.50
2018-06-20T12:04:04.954Z,27.70
2018-06-20T12:07:41.594Z,27.80
2018-06-20T12:10:15.259Z,27.80
2018-06-20T12:12:48.877Z,27.60
2018-06-20T12:15:22.614Z,27.70
2018-06-20T12:17:56.282Z,27.70
2018-06-20T12:20:30.059Z,27.70
2018-06-20T12:23:03.920Z,27.80
2018-06-20T12:25:37.534Z,28.00
2018-06-20T12:28:11.148Z,28.00
2018-06-20T12:30:44.798Z,28.00
2018-06-20T12:33:18.436Z,28.00
2018-06-20T12:35:52.107Z,28.10
2018-06-20T12:38:25.795Z,28.10
2018-06-20T12:41:01.979Z,28.00
2018-06-20T12:43:35.764Z,27.80
2018-06-20T12:46:08.079Z,27.30
2018-06-20T12:48:36.398Z,27.30
2018-06-20T12:51:04.731Z,27.50
2018-06-20T12:53:33.042Z,27.50
2018-06-20T12:56:02.398Z,27.60
2018-06-20T12:58:30.719Z,27.60
2018-06-20T13:00:59.017Z,27.70
2018-06-20T13:03:27.339Z,27.80
2018-06-20T13:05:55.638Z,28.10
2018-06-20T13:08:23.970Z,28.10
2018-06-20T13:10:52.271Z,28.20
2018-06-20T13:13:20.624Z,28.20
2018-06-20T13:15:48.923Z,28.40
2018-06-20T13:18:17.242Z,28.40
2018-06-20T13:20:45.546Z,28.50
2018-06-20T13:23:13.863Z,28.40
2018-06-20T13:25:42.165Z,28.40
2018-06-20T13:28:10.484Z,28.40
2018-06-20T13:30:38.786Z,28.40
2018-06-20T13:33:12.408Z,28.50
2018-06-20T13:35:46.111Z,28.60
2018-06-20T13:38:19.946Z,28.70
2018-06-20T13:40:53.666Z,28.70
2018-06-20T13:43:27.402Z,28.80
2018-06-20T13:46:01.107Z,28.50
2018-06-20T13:48:31.563Z,28.60
2018-06-20T13:50:59.870Z,28.60
2018-06-20T13:53:28.214Z,28.30
2018-06-20T13:55:56.526Z,28.20
2018-06-20T13:58:24.854Z,28.30
2018-06-20T14:00:53.249Z,28.50
2018-06-20T14:03:21.574Z,28.40
2018-06-20T14:05:49.894Z,28.40
2018-06-20T14:08:18.220Z,28.40
2018-06-20T14:10:46.557Z,28.60
2018-06-20T14:13:14.892Z,28.60
2018-06-20T14:15:43.215Z,28.60
2018-06-20T14:18:11.758Z,28.70
2018-06-20T14:20:45.367Z,28.80
2018-06-20T14:23:13.693Z,28.90
2018-06-20T14:25:42.003Z,28.90
2018-06-20T14:28:10.330Z,28.80
2018-06-20T14:30:43.999Z,28.90
2018-06-20T14:33:17.570Z,29.10
2018-06-20T14:36:55.119Z,29.20
2018-06-20T14:39:28.910Z,29.10
2018-06-20T14:42:02.622Z,28.80
2018-06-20T14:44:30.965Z,28.80
2018-06-20T14:46:59.280Z,28.60
2018-06-20T14:49:27.674Z,28.60
2018-06-20T14:51:55.990Z,28.60
2018-06-20T14:54:24.374Z,28.50
2018-06-20T14:56:52.695Z,28.40
2018-06-20T14:59:21.151Z,28.30
2018-06-20T15:01:49.451Z,28.30
2018-06-20T15:04:17.835Z,28.50
2018-06-20T15:06:46.208Z,28.60
2018-06-20T15:09:14.508Z,28.70
2018-06-20T15:11:42.862Z,28.90
2018-06-20T15:14:11.352Z,29.00
2018-06-20T15:16:45.118Z,28.70
2018-06-20T15:19:13.579Z,28.70
2018-06-20T15:21:41.885Z,28.70
2018-06-20T15:24:10.206Z,28.70
2018-06-20T15:27:45.838Z,28.80
2018-06-20T15:30:19.555Z,28.80
2018-06-20T15:32:53.339Z,28.80
2018-06-20T15:35:27.125Z,28.90
2018-06-20T15:38:00.950Z,28.90
2018-06-20T15:40:29.272Z,28.90
2018-06-20T15:42:57.710Z,28.90
2018-06-20T15:45:26.176Z,28.80
2018-06-20T15:47:54.507Z,28.70
2018-06-20T15:50:22.811Z,28.70
2018-06-20T15:52:51.230Z,28.70
2018-06-20T15:55:19.578Z,28.70
2018-06-20T15:57:47.882Z,28.70
2018-06-20T16:00:16.256Z,28.60
2018-06-20T16:02:44.526Z,28.60
2018-06-20T16:05:12.842Z,28.50
2018-06-20T16:07:41.186Z,28.50
2018-06-20T16:10:12.044Z,28.50
2018-06-20T16:12:40.368Z,28.50
2018-06-20T16:15:08.686Z,28.40
2018-06-20T16:17:37.002Z,28.50
2018-06-20T16:20:10.637Z,28.70
2018-06-20T16:22:44.234Z,28.60
2018-06-20T16:25:17.966Z,28.60
2018-06-20T16:27:51.611Z,28.60
2018-06-20T16:30:25.330Z,28.70
2018-06-20T16:32:53.845Z,28.60
2018-06-20T16:35:22.147Z,28.60
2018-06-20T16:37:50.517Z,28.60
2018-06-20T16:40:18.836Z,28.50
2018-06-20T16:42:47.246Z,28.50
2018-06-20T16:45:15.552Z,28.50
2018-06-20T16:47:44.161Z,28.60
2018-06-20T16:50:12.510Z,28.50
2018-06-20T16:52:40.839Z,28.60
2018-06-20T16:55:09.188Z,28.50
2018-06-20T16:57:37.510Z,28.40
2018-06-20T17:00:06.227Z,28.30
2018-06-20T17:02:36.587Z,28.20
2018-06-20T17:05:05.095Z,28.20
2018-06-20T17:07:33.407Z,28.30
2018-06-20T17:10:01.751Z,28.30
2018-06-20T17:12:35.460Z,28.30
2018-06-20T17:15:09.332Z,28.20
2018-06-20T17:17:43.094Z,28.00
2018-06-20T17:20:16.891Z,28.00
2018-06-20T17:22:50.750Z,28.10
2018-06-20T17:25:22.554Z,28.10
2018-06-20T17:27:50.862Z,28.10
2018-06-20T17:30:19.199Z,28.10
2018-06-20T17:32:47.555Z,28.10
2018-06-20T17:35:15.926Z,28.10
2018-06-20T17:37:44.230Z,28.00
2018-06-20T17:40:12.590Z,28.10
2018-06-20T17:42:40.902Z,28.00
2018-06-20T17:45:09.262Z,28.00
2018-06-20T17:47:37.580Z,28.00
2018-06-20T17:50:05.930Z,28.00
2018-06-20T17:52:34.235Z,27.70
2018-06-20T17:55:02.726Z,27.60
2018-06-20T17:57:31.027Z,27.70
2018-06-20T17:59:59.370Z,27.80
2018-06-20T18:02:27.723Z,27.80
2018-06-20T18:05:01.367Z,27.90
2018-06-20T18:07:34.948Z,27.90
2018-06-20T18:10:08.686Z,27.80
2018-06-20T18:12:42.453Z,27.80
2018-06-20T18:15:16.035Z,27.80
2018-06-20T18:17:44.347Z,27.80
2018-06-20T18:20:12.690Z,27.70
2018-06-20T18:22:41.082Z,27.60
2018-06-20T18:25:09.382Z,27.60
2018-06-20T18:27:37.694Z,27.50
2018-06-20T18:30:06.021Z,27.50
2018-06-20T18:32:34.380Z,27.40
2018-06-20T18:35:02.686Z,27.40
2018-06-20T18:37:31.046Z,27.30
2018-06-20T18:40:04.152Z,27.30
2018-06-20T18:42:32.974Z,27.30
2018-06-20T18:45:01.443Z,27.20
2018-06-20T18:47:35.278Z,27.20
2018-06-20T18:50:03.671Z,27.20
2018-06-20T18:52:32.032Z,27.10
2018-06-20T18:55:00.377Z,27.00
2018-06-20T18:57:34.203Z,27.00
2018-06-20T19:00:07.894Z,26.90
2018-06-20T19:02:41.631Z,26.80
2018-06-20T19:06:13.308Z,26.70
2018-06-20T19:08:46.970Z,26.70
2018-06-20T19:11:15.470Z,26.70
2018-06-20T19:13:43.794Z,26.60
2018-06-20T19:16:12.178Z,26.50
2018-06-20T19:18:40.485Z,26.40
2018-06-20T19:21:08.803Z,26.30
2018-06-20T19:23:37.164Z,26.10
2018-06-20T19:26:05.542Z,25.60
2018-06-20T19:28:33.894Z,25.60
2018-06-20T19:31:02.203Z,25.40
2018-06-20T19:33:30.539Z,25.40
2018-06-20T19:35:58.971Z,25.30
2018-06-20T19:38:27.405Z,25.30
2018-06-20T19:40:55.734Z,25.30
2018-06-20T19:45:52.131Z,25.10
2018-06-20T19:48:20.498Z,25.00
2018-06-20T19:50:48.813Z,24.90
2018-06-20T19:53:17.239Z,24.90
2018-06-20T19:55:45.538Z,24.80
2018-06-20T19:58:13.872Z,24.70
2018-06-20T20:00:42.283Z,24.50
2018-06-20T20:03:10.606Z,24.30
2018-06-20T20:05:38.898Z,24.10
2018-06-20T20:08:07.273Z,24.00
2018-06-20T20:10:35.619Z,24.00
2018-06-20T20:13:03.966Z,23.80
2018-06-20T20:15:32.278Z,23.70
2018-06-20T20:18:00.598Z,23.50
2018-06-20T20:20:28.991Z,23.50
2018-06-20T20:22:57.250Z,23.40
2018-06-20T20:25:25.575Z,23.40
2018-06-20T20:27:53.960Z,23.40
2018-06-20T20:30:22.282Z,23.40
2018-06-20T20:32:50.590Z,23.40
2018-06-20T20:35:18.910Z,23.40
2018-06-20T20:37:47.206Z,23.40
2018-06-20T20:40:15.529Z,23.40
2018-06-20T20:42:43.936Z,23.40
2018-06-20T20:45:12.262Z,23.30
2018-06-20T20:47:40.599Z,23.30
2018-06-20T20:50:08.938Z,23.20
2018-06-20T20:52:37.251Z,23.20
2018-06-20T20:55:05.947Z,23.30
2018-06-20T20:57:34.250Z,23.30
2018-06-20T21:00:02.590Z,23.20
2018-06-20T21:02:30.909Z,23.20
2018-06-20T21:04:59.234Z,23.10
2018-06-20T21:07:27.568Z,23.10
2018-06-20T21:09:55.910Z,23.00
2018-06-20T21:12:24.217Z,22.90
2018-06-20T21:14:52.557Z,22.80
2018-06-20T21:17:20.866Z,22.60
2018-06-20T21:19:49.198Z,22.50
2018-06-20T21:22:17.506Z,22.50
2018-06-20T21:24:45.843Z,22.40
2018-06-20T21:27:14.147Z,22.40
2018-06-20T21:29:42.495Z,22.30
2018-06-20T21:32:10.851Z,22.20
2018-06-20T21:34:39.151Z,22.20
2018-06-20T21:37:07.480Z,22.20
2018-06-20T21:39:35.791Z,22.20
2018-06-20T21:42:04.126Z,22.20
2018-06-20T21:44:32.434Z,22.10
2018-06-20T21:47:00.760Z,22.10
2018-06-20T21:49:29.098Z,22.10
2018-06-20T21:51:57.414Z,22.10
2018-06-20T21:54:25.721Z,22.10
2018-06-20T21:56:54.054Z,22.00
2018-06-20T21:59:22.350Z,22.00
2018-06-20T22:01:50.692Z,21.90
2018-06-20T22:04:19.227Z,21.90
2018-06-20T22:06:47.546Z,21.90
2018-06-20T22:09:15.850Z,21.80
2018-06-20T22:11:44.175Z,21.80
2018-06-20T22:14:12.475Z,21.70
2018-06-20T22:16:40.795Z,21.70
2018-06-20T22:19:09.098Z,21.60
2018-06-20T22:21:37.434Z,21.60
2018-06-20T22:24:05.955Z,21.50
2018-06-20T22:26:34.286Z,21.40
2018-06-20T22:29:02.580Z,21.30
2018-06-20T22:31:30.894Z,21.30
2018-06-20T22:33:59.195Z,21.20
2018-06-20T22:36:27.532Z,21.30
2018-06-20T22:38:55.831Z,21.30
2018-06-20T22:41:24.179Z,21.30
2018-06-20T22:43:52.461Z,21.20
2018-06-20T22:46:20.754Z,21.10
2018-06-20T22:48:49.114Z,21.10
2018-06-20T22:51:17.628Z,21.10
2018-06-20T22:53:45.960Z,21.00
2018-06-20T22:56:14.264Z,20.90
2018-06-20T22:58:42.590Z,20.90
2018-06-20T23:01:10.895Z,20.80
2018-06-20T23:03:39.331Z,20.80
2018-06-20T23:06:07.799Z,20.70
2018-06-20T23:08:36.138Z,20.60
2018-06-20T23:11:04.432Z,20.60
2018-06-20T23:13:32.774Z,20.50
2018-06-20T23:16:01.075Z,20.40
2018-06-20T23:18:29.583Z,20.40
2018-06-20T23:20:57.944Z,20.40
2018-06-20T23:23:26.266Z,20.30
2018-06-20T23:25:54.558Z,20.30
2018-06-20T23:28:22.879Z,20.30
2018-06-20T23:30:51.180Z,20.30
2018-06-20T23:33:19.514Z,20.30
2018-06-20T23:35:47.832Z,20.20
2018-06-20T23:38:16.302Z,20.20
2018-06-20T23:40:44.631Z,20.20
2018-06-20T23:43:12.934Z,20.10
2018-06-20T23:45:41.255Z,20.00
2018-06-20T23:48:09.583Z,20.00
2018-06-20T23:50:37.902Z,19.90
2018-06-20T23:53:07.074Z,20.00
2018-06-20T23:55:35.410Z,20.00
2018-06-20T23:58:03.738Z,19.90
